Time;durP1;ratioP1;P1;durP2;ratioP2;P2;SDS_P1;SDS_P2;PMS_P1;PMS_P2;Temp;Humidity;BMP_temperature;BMP_pressure;BME280_temperature;BME280_humidity;BME280_pressure;Samples;Min_cycle;Max_cycle;Signal;HPM_P1;HPM_P2
2022/01/23 00:00:55;;;;;;;48.92;23.65;;;;;;;;;;2114786;27;20137;-43
2022/01/23 00:02:07;;;;;;;50.47;26.13;;;;;;;;;;2121198;28;20582;-43
2022/01/23 00:03:15;;;;;;;48.67;25.88;;;;;;;;;;2123083;28;20075;-43
2022/01/23 00:04:17;;;;;;;46.13;23.10;;;;;;;;;;2117060;27;20082;-44
2022/01/23 00:05:20;;;;;;;52.10;25.92;;;;;;;;;;2122995;28;20122;-44
2022/01/23 00:06:21;;;;;;;44.15;23.05;;;;;;;;;;2123517;27;20498;-44
2022/01/23 00:07:22;;;;;;;41.40;21.20;;;;;;;;;;2119447;28;20122;-48
2022/01/23 00:08:24;;;;;;;38.40;21.08;;;;;;;;;;2122766;28;20488;-49
2022/01/23 00:09:26;;;;;;;30.08;17.85;;;;;;;;;;2118675;27;20046;-48
2022/01/23 00:10:27;;;;;;;27.80;14.25;;;;;;;;;;2121313;28;20550;-48
2022/01/23 00:11:31;;;;;;;30.33;14.85;;;;;;;;;;2122698;28;20077;-48
2022/01/23 00:12:37;;;;;;;31.02;16.95;;;;;;;;;;2120052;27;20078;-48
2022/01/23 00:17:16;;;;;;;28.75;15.05;;;;;;;;;;2122843;28;20130;-48
2022/01/23 00:18:06;;;;;;;29.25;13.25;;;;;;;;;;2074545;28;20055;-44
2022/01/23 00:19:07;;;;;;;28.88;15.48;;;;;;;;;;2079858;28;20140;-44
2022/01/23 00:20:10;;;;;;;26.33;15.43;;;;;;;;;;2080001;28;20103;-44
2022/01/23 00:21:11;;;;;;;28.58;15.27;;;;;;;;;;2085810;28;20506;-44
2022/01/23 00:22:12;;;;;;;23.30;12.43;;;;;;;;;;2093517;28;20059;-44
2022/01/23 00:23:26;;;;;;;26.55;13.00;;;;;;;;;;2113883;28;20079;-44
2022/01/23 00:31:11;;;;;;;26.50;13.25;;;;;;;;;;2113944;27;20052;-44
2022/01/23 00:32:12;;;;;;;31.33;15.93;;;;;;;;;;2121109;27;20465;-44
2022/01/23 00:33:14;;;;;;;27.60;14.40;;;;;;;;;;2122611;28;20047;-44
2022/01/23 00:34:14;;;;;;;27.77;15.65;;;;;;;;;;2119970;27;20118;-44
2022/01/23 00:35:16;;;;;;;29.13;14.63;;;;;;;;;;2119790;28;20039;-44
2022/01/23 00:36:17;;;;;;;28.73;15.00;;;;;;;;;;2122556;28;20138;-44
2022/01/23 00:37:19;;;;;;;24.55;14.15;;;;;;;;;;2121084;27;20043;-49
2022/01/23 00:38:22;;;;;;;26.63;14.48;;;;;;;;;;2121297;28;20043;-49
2022/01/23 00:39:23;;;;;;;33.42;14.95;;;;;;;;;;2122673;28;20530;-48
2022/01/23 00:40:24;;;;;;;28.27;15.13;;;;;;;;;;2120597;27;20051;-49
2022/01/23 00:41:26;;;;;;;33.40;16.27;;;;;;;;;;2122523;28;20563;-50
2022/01/23 00:42:28;;;;;;;28.73;15.15;;;;;;;;;;2122663;28;20130;-48
2022/01/23 00:43:30;;;;;;;;;;;;;;;;;;2120011;27;20134;-48
2022/01/23 00:44:34;;;;;;;25.08;12.50;;;;;;;;;;2122760;28;19974;-48
2022/01/23 00:45:41;;;;;;;28.77;15.00;;;;;;;;;;2116095;27;20036;-48
2022/01/23 00:46:49;;;;;;;31.65;15.85;;;;;;;;;;2115188;28;20084;-48
2022/01/23 00:47:53;;;;;;;32.50;15.93;;;;;;;;;;2114392;28;20074;-49
2022/01/23 00:49:24;;;;;;;34.72;16.92;;;;;;;;;;2117312;27;20181;-48
2022/01/23 00:50:24;;;;;;;28.95;16.75;;;;;;;;;;2122496;28;20130;-50
2022/01/23 00:51:26;;;;;;;31.47;15.93;;;;;;;;;;2120958;27;20047;-47
2022/01/23 00:52:29;;;;;;;33.50;17.48;;;;;;;;;;2113902;28;20496;-48
2022/01/23 00:53:30;;;;;;;31.50;16.97;;;;;;;;;;2114231;28;20082;-48
2022/01/23 00:54:31;;;;;;;35.65;19.40;;;;;;;;;;2117015;27;20280;-50
2022/01/23 00:55:32;;;;;;;31.52;17.25;;;;;;;;;;2114166;28;20120;-47
2022/01/23 00:56:34;;;;;;;31.05;16.83;;;;;;;;;;2113996;28;20526;-48
2022/01/23 00:57:35;;;;;;;36.38;18.42;;;;;;;;;;2119781;27;20113;-48
2022/01/23 00:58:36;;;;;;;33.00;16.42;;;;;;;;;;2122984;27;20053;-48
2022/01/23 00:59:37;;;;;;;34.72;18.65;;;;;;;;;;2124626;27;20506;-47
2022/01/23 01:00:38;;;;;;;32.92;18.20;;;;;;;;;;2120222;27;20047;-48
2022/01/23 01:01:40;;;;;;;29.85;15.60;;;;;;;;;;2116716;28;20040;-48
2022/01/23 01:02:41;;;;;;;35.17;18.30;;;;;;;;;;2117445;27;20042;-47
2022/01/23 01:03:43;;;;;;;26.42;14.05;;;;;;;;;;2122159;28;20134;-48
2022/01/23 01:04:44;;;;;;;27.35;15.45;;;;;;;;;;2124157;28;20051;-47
2022/01/23 01:05:45;;;;;;;28.55;14.15;;;;;;;;;;2122009;27;20385;-49
2022/01/23 01:06:45;;;;;;;29.05;14.68;;;;;;;;;;2123141;28;20134;-48
2022/01/23 01:07:47;;;;;;;30.17;15.57;;;;;;;;;;2123938;28;20047;-48
2022/01/23 01:08:50;;;;;;;30.58;15.60;;;;;;;;;;2118086;27;20523;-48
2022/01/23 01:09:54;;;;;;;30.45;14.65;;;;;;;;;;2124004;28;20104;-48
2022/01/23 01:11:16;;;;;;;30.27;15.68;;;;;;;;;;2124860;27;20096;-48
2022/01/23 01:12:21;;;;;;;29.55;16.00;;;;;;;;;;2121691;28;20050;-48
2022/01/23 01:13:24;;;;;;;30.23;16.95;;;;;;;;;;2124120;28;20070;-49
2022/01/23 01:14:56;;;;;;;33.75;17.60;;;;;;;;;;2120812;27;20189;-47
2022/01/23 01:16:13;;;;;;;32.20;16.23;;;;;;;;;;2124265;28;20125;-48
2022/01/23 01:17:21;;;;;;;28.52;16.00;;;;;;;;;;2119645;27;20075;-47
2022/01/23 01:30:28;;;;;;;37.50;18.73;;;;;;;;;;2123863;28;20134;-50
2022/01/23 01:31:34;;;;;;;31.08;15.45;;;;;;;;;;2118096;27;20187;-52
2022/01/23 01:32:48;;;;;;;45.92;20.33;;;;;;;;;;2123738;28;20103;-49
2022/01/23 01:33:53;;;;;;;38.25;17.30;;;;;;;;;;2120500;27;20075;-48
2022/01/23 01:35:05;;;;;;;49.97;21.63;;;;;;;;;;2122196;28;20139;-47
2022/01/23 01:36:19;;;;;;;48.97;22.75;;;;;;;;;;2123835;28;20059;-48
2022/01/23 01:37:20;;;;;;;41.20;21.63;;;;;;;;;;2118726;27;20119;-48
2022/01/23 01:38:21;;;;;;;51.90;23.73;;;;;;;;;;2123930;28;20169;-49
2022/01/23 01:39:24;;;;;;;47.80;21.92;;;;;;;;;;2124058;27;20089;-49
2022/01/23 01:40:25;;;;;;;49.53;23.13;;;;;;;;;;2120713;28;20421;-47
2022/01/23 01:41:27;;;;;;;45.40;22.92;;;;;;;;;;2119745;28;20044;-48
2022/01/23 01:42:27;;;;;;;49.90;23.30;;;;;;;;;;2117373;27;20176;-48
2022/01/23 01:43:29;;;;;;;51.20;24.75;;;;;;;;;;2122394;28;20039;-47
2022/01/23 01:44:30;;;;;;;48.42;23.40;;;;;;;;;;2123528;28;20447;-48
2022/01/23 01:45:33;;;;;;;46.67;22.33;;;;;;;;;;2119545;27;20096;-48
2022/01/23 01:46:34;;;;;;;40.75;19.85;;;;;;;;;;2115276;28;20050;-48
2022/01/23 01:47:35;;;;;;;38.63;19.35;;;;;;;;;;2115279;28;20131;-49
2022/01/23 01:48:36;;;;;;;47.33;21.95;;;;;;;;;;2121201;27;20488;-48
2022/01/23 01:49:37;;;;;;;45.13;21.40;;;;;;;;;;2123855;28;20047;-49
2022/01/23 01:50:44;;;;;;;45.88;22.05;;;;;;;;;;2122044;27;20067;-48
2022/01/23 01:51:45;;;;;;;42.47;22.67;;;;;;;;;;2120619;28;20074;-49
2022/01/23 01:52:46;;;;;;;43.40;23.73;;;;;;;;;;2123690;28;20562;-49
2022/01/23 01:53:51;;;;;;;40.03;20.87;;;;;;;;;;2121925;27;20047;-47
2022/01/23 01:55:00;;;;;;;31.95;17.60;;;;;;;;;;2122691;28;20133;-48
2022/01/23 01:56:04;;;;;;;37.55;20.92;;;;;;;;;;2123746;28;20054;-49
2022/01/23 01:57:07;;;;;;;41.65;20.27;;;;;;;;;;2120279;27;20084;-50
2022/01/23 01:58:32;;;;;;;44.22;21.10;;;;;;;;;;2123680;28;20079;-50
2022/01/23 02:00:55;;;;;;;29.08;14.52;;;;;;;;;;2114545;28;20134;-44
2022/01/23 02:08:18;;;;;;;33.95;17.85;;;;;;;;;;2116057;28;20107;-44
2022/01/23 02:08:56;;;;;;;29.00;14.60;;;;;;;;;;2121118;28;20142;-44
2022/01/23 02:09:56;;;;;;;30.42;16.70;;;;;;;;;;2123239;27;20130;-44
2022/01/23 02:11:03;;;;;;;21.90;13.27;;;;;;;;;;2120546;27;20063;-44
2022/01/23 02:12:20;;;;;;;31.73;16.05;;;;;;;;;;2115137;28;20555;-44
2022/01/23 02:13:27;;;;;;;34.92;17.10;;;;;;;;;;2117332;27;20039;-44
2022/01/23 02:14:38;;;;;;;23.52;13.10;;;;;;;;;;2121311;28;20067;-44
2022/01/23 02:16:17;;;;;;;28.10;14.00;;;;;;;;;;2123612;28;20074;-44
2022/01/23 02:17:38;;;;;;;31.35;15.48;;;;;;;;;;2120868;28;20046;-43
2022/01/23 02:22:57;;;;;;;27.80;14.45;;;;;;;;;;2120324;27;20048;-43
2022/01/23 02:24:10;;;;;;;25.45;14.10;;;;;;;;;;2123551;28;20126;-44
2022/01/23 02:25:40;;;;;;;24.73;14.10;;;;;;;;;;2119343;27;20148;-44
2022/01/23 02:50:45;;;;;;;29.98;15.75;;;;;;;;;;2120455;27;20044;-44
2022/01/23 02:51:55;;;;;;;32.17;17.33;;;;;;;;;;2123276;28;20507;-44
2022/01/23 02:53:17;;;;;;;35.53;17.50;;;;;;;;;;2122879;27;20126;-44
2022/01/23 02:54:29;;;;;;;36.10;18.40;;;;;;;;;;2120910;28;20050;-44
2022/01/23 02:55:39;;;;;;;31.63;17.63;;;;;;;;;;2123287;28;20544;-44
2022/01/23 02:56:45;;;;;;;34.00;19.17;;;;;;;;;;2119891;27;20135;-44
2022/01/23 02:57:53;;;;;;;35.05;18.42;;;;;;;;;;2123294;28;20079;-44
2022/01/23 02:58:58;;;;;;;34.95;18.63;;;;;;;;;;2120534;27;20035;-45
2022/01/23 02:59:59;;;;;;;41.78;21.58;;;;;;;;;;2115624;28;20082;-44
2022/01/23 03:01:15;;;;;;;48.42;22.60;;;;;;;;;;2114547;28;20101;-44
2022/01/23 03:02:28;;;;;;;39.22;21.13;;;;;;;;;;2119658;27;20114;-46
2022/01/23 03:03:30;;;;;;;40.28;21.88;;;;;;;;;;2123381;28;20039;-45
2022/01/23 03:04:33;;;;;;;43.42;20.92;;;;;;;;;;2120720;27;20511;-44
2022/01/23 03:05:37;;;;;;;41.78;20.67;;;;;;;;;;2115662;28;20040;-46
2022/01/23 03:06:54;;;;;;;44.03;22.67;;;;;;;;;;2114743;28;20126;-45
2022/01/23 03:08:02;;;;;;;39.20;21.35;;;;;;;;;;2119344;27;20162;-44
2022/01/23 03:09:50;;;;;;;36.97;21.35;;;;;;;;;;2123251;28;20130;-44
2022/01/23 03:10:34;;;;;;;40.03;20.88;;;;;;;;;;2120697;27;20044;-44
2022/01/23 03:11:59;;;;;;;38.50;19.80;;;;;;;;;;2123233;28;20126;-44
2022/01/23 03:14:42;;;;;;;39.85;19.98;;;;;;;;;;2114818;28;20127;-44
2022/01/23 03:16:12;;;;;;;38.20;19.17;;;;;;;;;;2116593;27;20130;-44
2022/01/23 03:25:23;;;;;;;38.28;20.70;;;;;;;;;;2100817;28;20344;-44
2022/01/23 03:26:30;;;;;;;37.88;19.38;;;;;;;;;;2123163;28;20047;-44
2022/01/23 03:28:15;;;;;;;39.60;20.50;;;;;;;;;;2118597;27;20104;-46
2022/01/23 03:29:21;;;;;;;36.47;19.30;;;;;;;;;;2114483;28;20126;-44
2022/01/23 03:30:25;;;;;;;41.60;19.27;;;;;;;;;;2115852;27;20441;-44
2022/01/23 03:31:30;;;;;;;36.80;18.30;;;;;;;;;;2118831;28;20043;-44
2022/01/23 03:32:36;;;;;;;33.78;18.55;;;;;;;;;;2123004;28;20437;-44
2022/01/23 03:33:40;;;;;;;36.60;18.58;;;;;;;;;;2114776;28;20043;-45
2022/01/23 03:34:41;;;;;;;32.90;17.30;;;;;;;;;;2114685;28;20140;-44
2022/01/23 03:35:42;;;;;;;34.22;19.60;;;;;;;;;;2116371;27;20042;-44
2022/01/23 03:36:44;;;;;;;34.83;18.08;;;;;;;;;;2121035;28;20491;-44
2022/01/23 03:37:45;;;;;;;30.35;17.08;;;;;;;;;;2123426;28;20121;-45
2022/01/23 03:38:47;;;;;;;27.77;16.05;;;;;;;;;;2121992;27;20550;-44
2022/01/23 03:39:50;;;;;;;28.42;15.60;;;;;;;;;;2122485;28;20059;-45
2022/01/23 03:40:51;;;;;;;25.77;15.40;;;;;;;;;;2122900;28;20131;-44
2022/01/23 03:41:52;;;;;;;28.98;14.60;;;;;;;;;;2119735;27;20488;-44
2022/01/23 03:42:57;;;;;;;29.05;14.13;;;;;;;;;;2122996;28;20067;-44
2022/01/23 03:44:01;;;;;;;24.85;14.20;;;;;;;;;;2123999;27;20184;-44
2022/01/23 03:45:22;;;;;;;24.23;14.90;;;;;;;;;;2119405;28;20138;-45
2022/01/23 03:46:46;;;;;;;28.25;14.55;;;;;;;;;;2122903;28;20126;-44
2022/01/23 03:48:02;;;;;;;;;;;;;;;;;;2119846;28;20047;-45
2022/01/23 03:50:22;;;;;;;29.88;15.23;;;;;;;;;;2118755;27;20127;-45
2022/01/23 03:51:23;;;;;;;28.60;14.40;;;;;;;;;;2122836;28;20100;-44
2022/01/23 03:52:26;;;;;;;29.20;15.53;;;;;;;;;;2122867;27;20039;-45
2022/01/23 03:53:27;;;;;;;27.80;15.27;;;;;;;;;;2119461;27;20138;-45
2022/01/23 03:54:29;;;;;;;27.97;15.23;;;;;;;;;;2122904;28;20353;-44
2022/01/23 03:55:30;;;;;;;28.35;15.63;;;;;;;;;;2119578;27;20043;-44
2022/01/23 03:56:31;;;;;;;24.75;13.38;;;;;;;;;;2120538;28;20123;-45
2022/01/23 03:57:33;;;;;;;23.98;14.05;;;;;;;;;;2122880;28;20134;-44
2022/01/23 03:58:34;;;;;;;28.85;13.82;;;;;;;;;;2122523;27;20145;-49
2022/01/23 03:59:36;;;;;;;25.23;14.18;;;;;;;;;;2114469;28;20323;-50
2022/01/23 04:00:37;;;;;;;27.25;15.68;;;;;;;;;;2114294;28;20075;-49
2022/01/23 04:01:38;;;;;;;23.25;14.45;;;;;;;;;;2116993;27;20131;-48
2022/01/23 04:02:40;;;;;;;24.30;14.10;;;;;;;;;;2114473;28;20048;-50
2022/01/23 04:03:41;;;;;;;25.00;14.95;;;;;;;;;;2113974;28;20131;-49
2022/01/23 04:04:42;;;;;;;23.77;13.65;;;;;;;;;;2117558;28;20496;-48
2022/01/23 04:05:43;;;;;;;22.05;13.20;;;;;;;;;;2122836;28;20094;-50
2022/01/23 04:06:44;;;;;;;24.00;14.27;;;;;;;;;;2123029;27;20054;-50
2022/01/23 04:07:46;;;;;;;24.60;12.50;;;;;;;;;;2119710;28;20079;-49
2022/01/23 04:08:48;;;;;;;25.75;14.88;;;;;;;;;;2122838;28;20492;-51
2022/01/23 04:09:51;;;;;;;24.85;13.05;;;;;;;;;;2121056;27;20134;-49
2022/01/23 04:10:52;;;;;;;24.27;13.73;;;;;;;;;;2121472;28;20575;-49
2022/01/23 04:11:54;;;;;;;23.85;13.35;;;;;;;;;;2122911;28;20071;-49
2022/01/23 04:12:59;;;;;;;30.00;12.68;;;;;;;;;;2120019;27;20100;-44
2022/01/23 04:14:05;;;;;;;21.85;13.35;;;;;;;;;;2122925;28;20134;-44
2022/01/23 04:15:13;;;;;;;22.48;13.38;;;;;;;;;;2122918;27;20515;-44
2022/01/23 04:16:36;;;;;;;23.77;14.02;;;;;;;;;;2119531;28;20134;-45
2022/01/23 04:19:17;;;;;;;21.20;12.50;;;;;;;;;;2118741;28;20043;-44
2022/01/23 04:32:44;;;;;;;19.27;11.18;;;;;;;;;;2113643;27;20074;-49
2022/01/23 04:33:51;;;;;;;19.83;10.65;;;;;;;;;;2115013;28;20058;-45
2022/01/23 04:35:09;;;;;;;20.75;12.00;;;;;;;;;;2115557;27;20464;-48
2022/01/23 04:45:39;;;;;;;22.30;11.20;;;;;;;;;;2124281;28;20057;-44
2022/01/23 04:47:20;;;;;;;23.20;11.95;;;;;;;;;;2121389;27;20130;-49
2022/01/23 05:00:11;;;;;;;27.33;12.98;;;;;;;;;;2115597;28;20522;-49
2022/01/23 05:01:22;;;;;;;22.02;11.88;;;;;;;;;;2115407;27;20040;-49
2022/01/23 05:03:13;;;;;;;24.55;12.65;;;;;;;;;;2115768;28;20054;-51
2022/01/23 05:05:14;;;;;;;22.20;12.30;;;;;;;;;;2115531;28;20512;-50
2022/01/23 05:06:23;;;;;;;23.35;12.20;;;;;;;;;;2117896;27;20039;-49
2022/01/23 05:07:27;;;;;;;21.50;11.13;;;;;;;;;;2116470;28;20167;-49
2022/01/23 05:08:32;;;;;;;24.30;12.75;;;;;;;;;;2115508;28;20048;-49
2022/01/23 05:09:35;;;;;;;24.13;12.23;;;;;;;;;;2118356;27;20100;-50
2022/01/23 05:10:36;;;;;;;22.27;13.25;;;;;;;;;;2123881;28;20043;-49
2022/01/23 05:11:41;;;;;;;24.05;13.25;;;;;;;;;;2124022;28;20100;-51
2022/01/23 05:12:42;;;;;;;24.23;12.25;;;;;;;;;;2118536;28;20127;-51
2022/01/23 05:13:43;;;;;;;24.73;13.10;;;;;;;;;;2124044;28;20051;-50
2022/01/23 05:14:46;;;;;;;23.48;12.23;;;;;;;;;;2124114;27;20051;-49
2022/01/23 05:15:47;;;;;;;24.20;13.27;;;;;;;;;;2121324;28;20043;-49
2022/01/23 05:16:48;;;;;;;23.60;13.48;;;;;;;;;;2124095;28;20054;-51
2022/01/23 05:17:49;;;;;;;22.15;11.88;;;;;;;;;;2123136;27;20478;-49
2022/01/23 05:18:51;;;;;;;22.17;12.10;;;;;;;;;;2122816;28;20051;-49
2022/01/23 05:19:53;;;;;;;23.85;13.20;;;;;;;;;;2123857;28;20071;-49
2022/01/23 05:21:05;;;;;;;20.48;12.15;;;;;;;;;;2119403;27;20078;-49
2022/01/23 05:23:25;;;;;;;23.15;12.85;;;;;;;;;;2122092;27;20380;-51
2022/01/23 05:24:32;;;;;;;24.45;13.40;;;;;;;;;;2116321;28;20088;-52
2022/01/23 05:25:36;;;;;;;19.90;11.95;;;;;;;;;;2115474;28;20044;-49
2022/01/23 05:26:43;;;;;;;23.60;12.15;;;;;;;;;;2118112;27;21228;-49
2022/01/23 05:27:45;;;;;;;26.80;14.27;;;;;;;;;;2123878;28;20446;-51
2022/01/23 05:28:46;;;;;;;26.80;13.00;;;;;;;;;;2123642;27;20054;-52
2022/01/23 05:29:48;;;;;;;25.77;12.60;;;;;;;;;;2119960;28;20050;-49
2022/01/23 05:30:49;;;;;;;;;;;;;;;;;;2124183;28;20057;-49
2022/01/23 05:31:52;;;;;;;22.75;11.80;;;;;;;;;;2123205;27;19954;-49
2022/01/23 05:32:55;;;;;;;27.02;13.18;;;;;;;;;;2121823;28;20082;-50
2022/01/23 05:33:56;;;;;;;24.83;13.93;;;;;;;;;;2123892;28;20151;-49
2022/01/23 05:34:57;;;;;;;25.30;13.35;;;;;;;;;;2121639;27;20104;-47
2022/01/23 05:35:58;;;;;;;29.25;14.10;;;;;;;;;;2123144;28;20047;-50
2022/01/23 05:36:59;;;;;;;24.52;13.30;;;;;;;;;;2124002;28;20043;-48
2022/01/23 05:38:01;;;;;;;22.65;13.60;;;;;;;;;;2120737;27;20039;-47
2022/01/23 05:39:02;;;;;;;23.67;13.40;;;;;;;;;;2123997;28;20128;-47
2022/01/23 05:40:04;;;;;;;25.95;13.65;;;;;;;;;;2123494;27;20547;-48
2022/01/23 05:41:05;;;;;;;25.15;13.40;;;;;;;;;;2120705;27;20042;-49
2022/01/23 05:42:07;;;;;;;21.98;12.90;;;;;;;;;;2123833;28;20412;-48
2022/01/23 05:43:08;;;;;;;;;;;;;;;;;;2123981;27;20100;-47
2022/01/23 05:44:09;;;;;;;26.00;13.57;;;;;;;;;;2121090;28;19923;-48
2022/01/23 05:45:11;;;;;;;23.40;12.68;;;;;;;;;;2123812;27;20126;-47
2022/01/23 05:46:12;;;;;;;22.13;12.60;;;;;;;;;;2123182;27;20093;-47
2022/01/23 05:47:13;;;;;;;23.95;13.02;;;;;;;;;;2122399;28;20039;-49
2022/01/23 05:48:15;;;;;;;23.55;13.02;;;;;;;;;;2123864;28;20126;-48
2022/01/23 05:49:17;;;;;;;26.75;14.25;;;;;;;;;;2118986;27;20134;-47
2022/01/23 05:50:18;;;;;;;29.42;14.85;;;;;;;;;;2123957;28;20055;-48
2022/01/23 05:51:19;;;;;;;25.27;13.88;;;;;;;;;;2123717;28;20616;-48
2022/01/23 05:52:20;;;;;;;27.58;13.98;;;;;;;;;;2120604;27;20051;-47
2022/01/23 05:53:21;;;;;;;26.27;14.02;;;;;;;;;;2123745;28;20130;-49
2022/01/23 05:54:22;;;;;;;29.58;15.63;;;;;;;;;;2124584;27;20542;-48
2022/01/23 05:55:23;;;;;;;23.75;13.60;;;;;;;;;;2121140;28;20130;-49
2022/01/23 05:56:24;;;;;;;27.85;14.02;;;;;;;;;;2123774;28;20465;-47
2022/01/23 05:57:25;;;;;;;26.63;14.00;;;;;;;;;;2123663;27;20054;-47
2022/01/23 05:58:26;;;;;;;28.20;14.13;;;;;;;;;;2116286;28;20078;-47
2022/01/23 05:59:27;;;;;;;27.42;14.63;;;;;;;;;;2115253;28;20043;-49
2022/01/23 06:00:29;;;;;;;25.90;14.20;;;;;;;;;;2118537;27;20035;-48
2022/01/23 06:01:30;;;;;;;26.42;14.65;;;;;;;;;;2115352;28;20783;-49
2022/01/23 06:02:31;;;;;;;26.90;14.75;;;;;;;;;;2115235;28;20493;-49
2022/01/23 06:03:32;;;;;;;25.52;14.77;;;;;;;;;;2119464;27;20039;-49
2022/01/23 06:04:34;;;;;;;28.40;15.43;;;;;;;;;;2123669;28;20069;-49
2022/01/23 06:05:35;;;;;;;26.48;14.18;;;;;;;;;;2123477;27;20047;-48
2022/01/23 06:06:36;;;;;;;27.50;15.35;;;;;;;;;;2118258;27;20043;-49
2022/01/23 06:07:37;;;;;;;26.38;13.82;;;;;;;;;;2115288;28;20373;-49
2022/01/23 06:08:38;;;;;;;29.40;15.30;;;;;;;;;;2118493;27;20135;-47
2022/01/23 06:09:41;;;;;;;29.85;14.18;;;;;;;;;;2116971;28;20476;-48
2022/01/23 06:10:53;;;;;;;28.20;15.13;;;;;;;;;;2115045;28;20082;-48
2022/01/23 06:11:54;;;;;;;25.60;14.48;;;;;;;;;;2119456;27;20452;-47
2022/01/23 06:12:55;;;;;;;27.83;15.43;;;;;;;;;;2123721;28;20131;-49
2022/01/23 06:13:56;;;;;;;27.77;14.80;;;;;;;;;;2124314;27;20043;-49
2022/01/23 06:14:57;;;;;;;31.13;14.35;;;;;;;;;;2116598;28;20507;-48
2022/01/23 06:15:59;;;;;;;27.15;14.23;;;;;;;;;;2115024;28;20059;-48
2022/01/23 06:17:01;;;;;;;27.92;15.50;;;;;;;;;;2117084;27;20495;-49
2022/01/23 06:18:02;;;;;;;28.27;14.48;;;;;;;;;;2121192;28;20085;-49
2022/01/23 06:19:03;;;;;;;35.20;16.60;;;;;;;;;;2123601;28;20415;-49
2022/01/23 06:20:07;;;;;;;28.42;16.00;;;;;;;;;;2121414;27;20134;-47
2022/01/23 06:21:08;;;;;;;28.13;16.02;;;;;;;;;;2115090;28;20075;-48
2022/01/23 06:22:09;;;;;;;32.67;15.93;;;;;;;;;;2115043;28;20054;-48
2022/01/23 06:23:11;;;;;;;26.58;15.40;;;;;;;;;;2119519;27;20128;-51
2022/01/23 06:24:21;;;;;;;31.08;15.82;;;;;;;;;;2123588;28;20134;-48
2022/01/23 06:25:32;;;;;;;31.13;17.10;;;;;;;;;;2123216;27;20075;-48
2022/01/23 06:26:39;;;;;;;29.27;15.65;;;;;;;;;;2121103;28;20184;-48
2022/01/23 06:27:40;;;;;;;31.45;15.25;;;;;;;;;;2123448;28;20484;-48
2022/01/23 06:28:42;;;;;;;30.67;16.23;;;;;;;;;;2120461;27;20057;-49
2022/01/23 06:29:43;;;;;;;;;;;;;;;;;;2123925;28;20075;-49
2022/01/23 06:30:44;;;;;;;27.88;13.73;;;;;;;;;;2123466;28;20344;-50
2022/01/23 06:31:47;;;;;;;29.70;16.30;;;;;;;;;;2120183;27;20131;-48
2022/01/23 06:32:48;;;;;;;28.60;15.25;;;;;;;;;;2123601;28;20354;-50
2022/01/23 06:33:49;;;;;;;28.60;15.10;;;;;;;;;;2122093;27;20047;-48
2022/01/23 06:34:50;;;;;;;31.15;15.98;;;;;;;;;;2115623;28;20626;-48
2022/01/23 06:35:51;;;;;;;33.38;16.67;;;;;;;;;;2114877;28;20051;-49
2022/01/23 06:36:53;;;;;;;30.23;16.27;;;;;;;;;;2115653;27;20087;-49
2022/01/23 06:37:54;;;;;;;30.95;16.38;;;;;;;;;;2122272;28;20055;-49
2022/01/23 06:38:55;;;;;;;26.50;15.02;;;;;;;;;;2123315;28;20043;-50
2022/01/23 06:39:56;;;;;;;28.77;15.77;;;;;;;;;;2119210;27;20485;-48
2022/01/23 06:40:57;;;;;;;29.75;15.90;;;;;;;;;;2123141;28;20096;-50
2022/01/23 06:41:58;;;;;;;30.80;14.63;;;;;;;;;;2123377;28;20079;-48
2022/01/23 06:42:59;;;;;;;31.70;16.45;;;;;;;;;;2120205;27;20130;-48
2022/01/23 06:44:00;;;;;;;33.08;16.85;;;;;;;;;;2123439;28;20051;-48
2022/01/23 06:45:02;;;;;;;30.65;15.18;;;;;;;;;;2123824;27;20053;-49
2022/01/23 06:46:02;;;;;;;27.48;14.82;;;;;;;;;;2119619;27;20498;-48
2022/01/23 06:47:05;;;;;;;31.70;16.23;;;;;;;;;;2123424;28;20047;-47
2022/01/23 06:48:06;;;;;;;30.58;17.42;;;;;;;;;;2122547;27;20150;-48
2022/01/23 06:49:07;;;;;;;32.60;16.07;;;;;;;;;;2121321;28;20043;-48
2022/01/23 06:50:09;;;;;;;30.92;15.52;;;;;;;;;;2123364;28;20055;-49
2022/01/23 06:51:10;;;;;;;30.65;15.73;;;;;;;;;;2121123;27;20111;-48
2022/01/23 06:52:12;;;;;;;26.92;14.57;;;;;;;;;;2122395;28;20074;-49
2022/01/23 06:53:13;;;;;;;28.15;15.13;;;;;;;;;;2123265;28;20047;-49
2022/01/23 06:54:14;;;;;;;30.95;15.98;;;;;;;;;;2117358;27;20503;-49
2022/01/23 06:55:17;;;;;;;26.80;14.85;;;;;;;;;;2123542;28;20077;-48
2022/01/23 06:56:18;;;;;;;29.90;16.23;;;;;;;;;;2122397;27;20423;-47
2022/01/23 06:57:19;;;;;;;28.58;15.10;;;;;;;;;;2120182;27;20041;-49
2022/01/23 06:58:20;;;;;;;29.98;14.65;;;;;;;;;;2123436;28;20123;-44
2022/01/23 06:59:21;;;;;;;29.38;16.77;;;;;;;;;;2123204;27;20099;-43
2022/01/23 07:00:22;;;;;;;31.38;15.65;;;;;;;;;;2120354;28;20460;-44
2022/01/23 07:01:23;;;;;;;33.10;16.65;;;;;;;;;;2117794;28;20065;-43
2022/01/23 07:02:25;;;;;;;26.58;14.55;;;;;;;;;;2114429;27;20047;-43
2022/01/23 07:03:26;;;;;;;27.40;15.60;;;;;;;;;;2121824;28;20381;-43
2022/01/23 07:04:27;;;;;;;30.13;16.13;;;;;;;;;;2123372;28;20484;-43
2022/01/23 07:05:28;;;;;;;31.17;17.20;;;;;;;;;;2120077;27;20044;-43
2022/01/23 07:06:29;;;;;;;34.33;17.00;;;;;;;;;;2123391;28;20100;-43
2022/01/23 07:07:42;;;;;;;33.70;15.43;;;;;;;;;;2123491;27;20047;-43
2022/01/23 07:08:43;;;;;;;32.33;17.40;;;;;;;;;;2119609;27;20035;-44
2022/01/23 07:09:44;;;;;;;31.38;17.50;;;;;;;;;;2123191;28;20511;-43
2022/01/23 07:10:45;;;;;;;32.40;15.82;;;;;;;;;;2120933;27;20393;-44
2022/01/23 07:11:46;;;;;;;28.77;15.50;;;;;;;;;;2121011;28;20104;-43
2022/01/23 07:12:47;;;;;;;30.02;15.35;;;;;;;;;;2123271;28;20119;-44
2022/01/23 07:13:48;;;;;;;34.17;17.37;;;;;;;;;;2121114;27;20055;-44
2022/01/23 07:14:50;;;;;;;32.63;17.50;;;;;;;;;;2121985;28;20358;-43
2022/01/23 07:15:52;;;;;;;32.83;16.85;;;;;;;;;;2123200;28;20066;-43
2022/01/23 07:16:53;;;;;;;32.15;17.63;;;;;;;;;;2119886;27;20065;-43
2022/01/23 07:17:55;;;;;;;27.03;14.47;;;;;;;;;;2123309;28;20043;-44
2022/01/23 07:18:55;;;;;;;30.45;15.48;;;;;;;;;;2118828;27;20047;-45
2022/01/23 07:19:57;;;;;;;29.20;15.87;;;;;;;;;;2120372;28;20051;-44
2022/01/23 07:20:58;;;;;;;26.65;15.07;;;;;;;;;;2123141;28;20047;-43
2022/01/23 07:21:59;;;;;;;31.40;16.07;;;;;;;;;;2122028;27;20044;-43
2022/01/23 07:23:00;;;;;;;35.22;18.20;;;;;;;;;;2120041;28;20551;-44
2022/01/23 07:24:01;;;;;;;32.00;16.47;;;;;;;;;;2123121;28;20051;-43
2022/01/23 07:25:03;;;;;;;30.85;16.90;;;;;;;;;;2118521;27;20054;-43
2022/01/23 07:26:06;;;;;;;33.10;17.10;;;;;;;;;;2121635;28;20047;-45
2022/01/23 07:27:15;;;;;;;34.33;18.25;;;;;;;;;;2123217;28;20075;-44
2022/01/23 07:28:19;;;;;;;32.20;16.23;;;;;;;;;;2118960;27;20087;-44
2022/01/23 07:29:20;;;;;;;28.45;15.70;;;;;;;;;;2114687;28;20100;-44
2022/01/23 07:30:28;;;;;;;30.35;15.48;;;;;;;;;;2115507;27;20050;-44
2022/01/23 07:31:54;;;;;;;31.50;17.83;;;;;;;;;;2119695;28;20051;-44
2022/01/23 07:32:56;;;;;;;34.90;17.02;;;;;;;;;;2123016;28;20054;-44
2022/01/23 07:33:57;;;;;;;31.17;16.98;;;;;;;;;;2121154;27;20118;-44
2022/01/23 07:34:58;;;;;;;33.42;17.15;;;;;;;;;;2123099;28;20051;-45
2022/01/23 07:35:59;;;;;;;33.28;17.83;;;;;;;;;;2121857;27;20131;-44
2022/01/23 07:37:01;;;;;;;28.52;14.98;;;;;;;;;;2119405;28;20077;-44
2022/01/23 07:38:02;;;;;;;30.83;16.90;;;;;;;;;;2123101;28;20445;-44
2022/01/23 07:39:03;;;;;;;33.10;18.35;;;;;;;;;;2123691;27;20879;-44
2022/01/23 07:40:05;;;;;;;33.40;18.30;;;;;;;;;;2115315;28;20435;-44
2022/01/23 07:41:06;;;;;;;30.95;18.55;;;;;;;;;;2114492;28;20056;-44
2022/01/23 07:42:08;;;;;;;29.85;15.60;;;;;;;;;;2117165;27;20039;-44
2022/01/23 07:43:09;;;;;;;29.95;16.75;;;;;;;;;;2121704;28;20407;-44
2022/01/23 07:44:10;;;;;;;36.42;18.20;;;;;;;;;;2123137;28;20104;-50
2022/01/23 07:45:11;;;;;;;30.30;16.17;;;;;;;;;;2117979;27;20060;-48
2022/01/23 07:46:13;;;;;;;29.63;16.17;;;;;;;;;;2114420;28;20079;-48
2022/01/23 07:47:14;;;;;;;32.17;18.83;;;;;;;;;;2114558;28;20756;-50
2022/01/23 07:48:19;;;;;;;31.25;16.48;;;;;;;;;;2120791;27;20043;-48
2022/01/23 07:49:20;;;;;;;29.85;15.98;;;;;;;;;;2123058;28;20086;-44
2022/01/23 07:50:21;;;;;;;30.37;16.83;;;;;;;;;;2121661;27;20511;-53
2022/01/23 07:51:22;;;;;;;27.33;15.23;;;;;;;;;;2115245;28;20051;-49
2022/01/23 07:52:23;;;;;;;35.47;16.50;;;;;;;;;;2114499;28;20051;-48
2022/01/23 07:53:24;;;;;;;30.63;17.90;;;;;;;;;;2116620;27;20701;-49
2022/01/23 07:54:25;;;;;;;26.40;15.70;;;;;;;;;;2121787;28;20047;-48
2022/01/23 07:55:26;;;;;;;33.67;17.60;;;;;;;;;;2122846;28;20126;-50
2022/01/23 07:56:28;;;;;;;32.75;17.00;;;;;;;;;;2121226;27;20043;-44
2022/01/23 07:57:29;;;;;;;35.72;17.10;;;;;;;;;;2114397;28;20480;-45
2022/01/23 07:58:30;;;;;;;32.97;17.20;;;;;;;;;;2114434;28;20540;-44
2022/01/23 07:59:31;;;;;;;30.58;17.92;;;;;;;;;;2117547;27;20039;-45
2022/01/23 08:00:34;;;;;;;36.88;16.75;;;;;;;;;;2122941;28;20414;-45
2022/01/23 08:01:38;;;;;;;29.58;18.05;;;;;;;;;;2117771;27;20043;-44